createdAt,value
2022-11-08T00:02:19.596Z,3.83
2022-11-08T00:04:48.111Z,3.73
2022-11-08T00:07:37.808Z,6.40
2022-11-08T00:10:24.023Z,6.73
2022-11-08T00:13:10.174Z,9.73
2022-11-08T00:15:39.388Z,7.37
2022-11-08T00:18:08.381Z,4.83
2022-11-08T00:20:37.053Z,4.30
2022-11-08T00:23:06.886Z,6.60
2022-11-08T00:25:35.411Z,3.87
2022-11-08T00:28:04.093Z,4.33
2022-11-08T00:30:32.523Z,5.20
2022-11-08T00:33:00.953Z,5.20
2022-11-08T00:35:29.600Z,7.37
2022-11-08T00:37:58.036Z,3.83
2022-11-08T00:40:27.840Z,6.33
2022-11-08T00:42:56.672Z,4.87
2022-11-08T00:45:25.216Z,4.03
2022-11-08T00:47:53.624Z,4.77
2022-11-08T00:50:22.180Z,6.77
2022-11-08T00:52:50.718Z,6.23
2022-11-08T00:55:19.591Z,9.10
2022-11-08T00:58:04.688Z,10.37
2022-11-08T01:00:33.216Z,8.83
2022-11-08T01:03:19.249Z,12.00
2022-11-08T01:05:48.167Z,10.90
2022-11-08T01:08:17.147Z,10.77
2022-11-08T01:10:46.682Z,9.10
2022-11-08T01:13:16.664Z,5.13
2022-11-08T01:15:46.242Z,10.53
2022-11-08T01:18:16.651Z,14.03
2022-11-08T01:20:46.255Z,13.07
2022-11-08T01:23:14.824Z,17.67
2022-11-08T01:25:44.277Z,10.17
2022-11-08T01:28:12.780Z,11.50
2022-11-08T01:30:43.821Z,8.97
2022-11-08T01:33:12.734Z,6.07
2022-11-08T01:35:41.636Z,6.00
2022-11-08T01:38:10.125Z,5.47
2022-11-08T01:40:44.486Z,5.93
2022-11-08T01:43:28.565Z,5.10
2022-11-08T01:46:25.133Z,5.40
2022-11-08T01:48:55.426Z,3.93
2022-11-08T01:51:26.577Z,4.17
2022-11-08T01:53:55.474Z,3.60
2022-11-08T01:56:23.941Z,3.10
2022-11-08T01:58:53.871Z,3.90
2022-11-08T02:01:24.042Z,3.97
2022-11-08T02:03:52.809Z,3.90
2022-11-08T02:06:21.869Z,3.07
2022-11-08T02:08:50.432Z,3.00
2022-11-08T02:11:19.318Z,2.47
2022-11-08T02:13:47.859Z,2.80
2022-11-08T02:16:17.102Z,2.43
2022-11-08T02:18:47.804Z,2.53
2022-11-08T02:21:18.685Z,4.07
2022-11-08T02:23:49.786Z,2.87
2022-11-08T02:26:18.748Z,2.80
2022-11-08T02:28:48.296Z,2.43
2022-11-08T02:31:18.367Z,3.03
2022-11-08T02:33:47.276Z,1.90
2022-11-08T02:36:17.804Z,2.57
2022-11-08T02:38:48.009Z,3.53
2022-11-08T02:41:17.824Z,2.60
2022-11-08T02:43:46.380Z,2.40
2022-11-08T02:46:14.949Z,2.23
2022-11-08T02:48:43.367Z,2.97
2022-11-08T02:51:11.905Z,3.03
2022-11-08T02:53:40.469Z,3.17
2022-11-08T02:56:09.185Z,4.00
2022-11-08T02:58:39.212Z,6.80
2022-11-08T03:01:07.873Z,5.40
2022-11-08T03:03:36.399Z,6.73
2022-11-08T03:06:05.020Z,5.97
2022-11-08T03:08:33.518Z,5.40
2022-11-08T03:11:02.161Z,5.17
2022-11-08T03:13:30.727Z,9.47
2022-11-08T03:16:03.333Z,7.93
2022-11-08T03:18:31.977Z,7.00
2022-11-08T03:21:01.437Z,7.37
2022-11-08T03:23:30.161Z,6.83
2022-11-08T03:25:58.872Z,8.50
2022-11-08T03:28:27.621Z,7.23
2022-11-08T03:30:56.458Z,8.60
2022-11-08T03:33:26.672Z,8.97
2022-11-08T03:35:55.349Z,9.77
2022-11-08T03:38:23.767Z,7.37
2022-11-08T03:40:52.407Z,5.10
2022-11-08T03:43:20.827Z,6.23
2022-11-08T03:45:49.326Z,4.57
2022-11-08T03:48:19.267Z,4.47
2022-11-08T03:50:49.704Z,5.10
2022-11-08T03:53:18.145Z,4.57
2022-11-08T03:55:46.776Z,2.83
2022-11-08T03:58:15.591Z,3.33
2022-11-08T04:00:44.293Z,2.93
2022-11-08T04:03:12.848Z,3.47
2022-11-08T04:05:41.448Z,4.93
2022-11-08T04:08:11.392Z,5.60
2022-11-08T04:10:39.949Z,6.03
2022-11-08T04:13:26.168Z,5.20
2022-11-08T04:15:56.105Z,4.87
2022-11-08T04:18:42.232Z,4.90
2022-11-08T04:21:23.086Z,3.97
2022-11-08T04:23:53.432Z,2.20
2022-11-08T04:26:23.545Z,2.90
2022-11-08T04:28:52.276Z,3.20
2022-11-08T04:31:21.908Z,1.30
2022-11-08T04:33:50.583Z,1.50
2022-11-08T04:36:19.439Z,1.20
2022-11-08T04:38:49.652Z,0.90
2022-11-08T04:41:20.656Z,1.00
2022-11-08T04:43:52.101Z,1.00
2022-11-08T04:46:21.348Z,1.20
2022-11-08T04:48:51.835Z,0.97
2022-11-08T04:51:22.082Z,1.10
2022-11-08T04:53:51.086Z,0.90
2022-11-08T04:56:21.505Z,1.40
2022-11-08T04:58:51.172Z,1.70
2022-11-08T05:01:20.631Z,1.73
2022-11-08T05:03:49.809Z,1.40
2022-11-08T05:06:19.843Z,1.50
2022-11-08T05:08:48.396Z,1.87
2022-11-08T05:11:17.905Z,1.67
2022-11-08T05:13:48.056Z,1.10
2022-11-08T05:16:17.577Z,1.33
2022-11-08T05:18:46.008Z,1.50
2022-11-08T05:21:33.882Z,1.60
2022-11-08T05:24:02.809Z,1.10
2022-11-08T05:26:31.594Z,1.50
2022-11-08T05:29:01.645Z,1.77
2022-11-08T05:31:30.056Z,1.77
2022-11-08T05:34:00.141Z,1.17
2022-11-08T05:36:29.081Z,1.50
2022-11-08T05:38:57.761Z,1.23
2022-11-08T05:41:26.738Z,3.07
2022-11-08T05:43:56.467Z,1.80
2022-11-08T05:46:26.319Z,1.43
2022-11-08T05:48:55.000Z,1.30
2022-11-08T05:51:23.644Z,1.30
2022-11-08T05:53:52.265Z,1.53
2022-11-08T05:56:20.711Z,1.57
2022-11-08T05:58:49.493Z,1.77
2022-11-08T06:01:18.951Z,1.30
2022-11-08T06:03:49.036Z,1.60
2022-11-08T06:06:18.310Z,1.47
2022-11-08T06:08:50.269Z,2.10
2022-11-08T06:11:21.616Z,2.00
2022-11-08T06:13:50.532Z,2.27
2022-11-08T06:16:19.669Z,1.60
2022-11-08T06:18:49.766Z,1.80
2022-11-08T06:21:18.941Z,1.97
2022-11-08T06:23:47.587Z,1.63
2022-11-08T06:26:16.171Z,2.33
2022-11-08T06:28:44.720Z,1.77
2022-11-08T06:31:13.161Z,1.80
2022-11-08T06:33:41.659Z,2.30
2022-11-08T06:36:11.689Z,1.50
2022-11-08T06:38:40.118Z,1.60
2022-11-08T06:41:08.692Z,1.50
2022-11-08T06:43:37.184Z,1.37
2022-11-08T06:46:05.814Z,1.67
2022-11-08T06:48:36.236Z,1.70
2022-11-08T06:51:05.285Z,1.40
2022-11-08T06:53:35.169Z,1.63
2022-11-08T06:56:03.993Z,1.50
2022-11-08T06:58:32.702Z,1.33
2022-11-08T07:01:06.007Z,1.40
2022-11-08T07:03:34.968Z,1.30
2022-11-08T07:06:03.917Z,1.30
2022-11-08T07:08:32.544Z,1.23
2022-11-08T07:11:02.568Z,1.57
2022-11-08T07:13:31.009Z,1.40
2022-11-08T07:16:00.155Z,1.43
2022-11-08T07:18:29.337Z,1.80
2022-11-08T07:21:00.420Z,1.63
2022-11-08T07:23:28.912Z,1.70
2022-11-08T07:25:57.515Z,1.67
2022-11-08T07:28:27.349Z,1.60
2022-11-08T07:30:59.165Z,1.53
2022-11-08T07:33:27.692Z,1.50
2022-11-08T07:35:56.280Z,1.67
2022-11-08T07:38:26.304Z,2.23
2022-11-08T07:40:58.116Z,1.63
2022-11-08T07:43:29.121Z,2.40
2022-11-08T07:45:58.764Z,2.30
2022-11-08T07:48:27.378Z,2.57
2022-11-08T07:50:56.228Z,2.10
2022-11-08T07:53:24.672Z,1.73
2022-11-08T07:55:53.387Z,2.17
2022-11-08T07:58:22.208Z,1.67
2022-11-08T08:00:52.030Z,1.40
2022-11-08T08:03:21.148Z,2.50
2022-11-08T08:05:59.477Z,3.27
2022-11-08T08:08:29.413Z,2.60
2022-11-08T08:11:01.640Z,2.87
2022-11-08T08:13:30.568Z,2.47
2022-11-08T08:16:01.606Z,3.63
2022-11-08T08:18:30.471Z,3.83
2022-11-08T08:20:59.445Z,2.60
2022-11-08T08:23:27.954Z,2.60
2022-11-08T08:25:56.654Z,1.50
2022-11-08T08:28:25.125Z,1.30
2022-11-08T08:30:53.553Z,1.60
2022-11-08T08:33:30.650Z,1.27
2022-11-08T08:36:01.321Z,1.60
2022-11-08T08:38:30.528Z,1.13
2022-11-08T08:40:59.173Z,1.47
2022-11-08T08:43:28.603Z,1.63
2022-11-08T08:45:57.445Z,1.47
2022-11-08T08:48:27.356Z,1.50
2022-11-08T08:50:55.806Z,1.87
2022-11-08T08:53:24.481Z,1.60
2022-11-08T08:55:53.383Z,1.50
2022-11-08T08:58:22.196Z,1.30
2022-11-08T09:03:40.766Z,1.10
2022-11-08T09:06:09.592Z,1.60
2022-11-08T09:08:38.095Z,1.20
2022-11-08T09:11:06.683Z,1.50
2022-11-08T09:13:35.292Z,1.20
2022-11-08T09:16:03.997Z,0.90
2022-11-08T09:18:32.955Z,1.00
2022-11-08T09:21:04.587Z,1.00
2022-11-08T09:23:33.325Z,0.80
2022-11-08T09:26:03.281Z,0.70
2022-11-08T09:28:32.092Z,1.00
2022-11-08T09:31:07.941Z,0.50
2022-11-08T09:33:37.085Z,0.60
2022-11-08T09:36:07.677Z,0.50
2022-11-08T09:38:36.200Z,0.67
2022-11-08T09:41:13.246Z,0.73
2022-11-08T09:43:47.446Z,0.57
2022-11-08T09:46:18.171Z,0.50
2022-11-08T09:48:47.189Z,0.30
2022-11-08T09:51:18.785Z,0.60
2022-11-08T09:53:50.600Z,0.60
2022-11-08T09:56:21.473Z,0.40
2022-11-08T09:58:54.388Z,0.53
2022-11-08T10:01:27.121Z,0.20
2022-11-08T10:03:57.140Z,0.20
2022-11-08T10:06:46.241Z,0.10
2022-11-08T10:09:22.025Z,0.10
2022-11-08T10:12:02.128Z,0.10
2022-11-08T10:14:45.319Z,0.13
2022-11-08T10:17:31.454Z,0.20
2022-11-08T10:20:07.081Z,0.30
2022-11-08T10:22:44.299Z,0.20
2022-11-08T10:25:19.954Z,0.20
2022-11-08T10:27:48.509Z,0.23
2022-11-08T10:30:20.565Z,0.40
2022-11-08T10:32:50.709Z,0.40
2022-11-08T10:35:22.753Z,0.20
2022-11-08T10:37:53.170Z,0.20
2022-11-08T10:40:27.131Z,0.20
2022-11-08T10:43:01.709Z,0.20
2022-11-08T10:45:32.853Z,0.40
2022-11-08T10:48:01.990Z,0.37
2022-11-08T10:50:34.227Z,0.43
2022-11-08T10:53:04.936Z,0.40
2022-11-08T10:55:38.705Z,0.47
2022-11-08T10:58:26.889Z,0.37
2022-11-08T11:01:01.464Z,0.40
2022-11-08T11:03:30.536Z,0.40
2022-11-08T11:06:02.637Z,0.30
2022-11-08T11:08:32.861Z,0.30
2022-11-08T11:11:17.352Z,0.40
2022-11-08T11:13:45.836Z,0.30
2022-11-08T11:16:16.098Z,0.20
2022-11-08T11:18:49.186Z,0.40
2022-11-08T11:21:19.025Z,0.30
2022-11-08T11:23:49.676Z,0.50
2022-11-08T11:26:21.308Z,0.30
2022-11-08T11:29:22.685Z,0.37
2022-11-08T11:31:53.245Z,0.30
2022-11-08T11:34:45.644Z,0.50
2022-11-08T11:37:20.544Z,0.20
2022-11-08T11:39:57.044Z,0.30
2022-11-08T11:42:45.141Z,0.30
2022-11-08T11:45:18.670Z,0.43
2022-11-08T11:47:48.039Z,0.50
2022-11-08T11:50:22.612Z,0.80
2022-11-08T11:52:51.177Z,0.30
2022-11-08T11:55:21.309Z,0.43
2022-11-08T11:57:54.739Z,0.30
2022-11-08T12:00:23.381Z,0.30
2022-11-08T12:03:09.495Z,0.20
2022-11-08T12:05:46.901Z,0.20
2022-11-08T12:08:21.113Z,0.33
2022-11-08T12:11:01.829Z,0.27
2022-11-08T12:13:35.507Z,0.33
2022-11-08T12:16:09.001Z,0.30
2022-11-08T12:18:44.461Z,0.20
2022-11-08T12:21:15.088Z,0.30
2022-11-08T12:23:58.609Z,0.20
2022-11-08T12:26:32.417Z,0.20
2022-11-08T12:29:09.944Z,0.20
2022-11-08T12:31:45.002Z,0.30
2022-11-08T12:34:19.747Z,0.27
2022-11-08T12:36:52.201Z,0.20
2022-11-08T12:39:27.157Z,0.30
2022-11-08T12:42:02.243Z,0.37
2022-11-08T12:44:48.429Z,0.20
2022-11-08T12:47:21.647Z,0.30
2022-11-08T12:49:54.213Z,0.30
2022-11-08T12:52:29.781Z,0.30
2022-11-08T12:55:01.666Z,0.70
2022-11-08T12:57:32.209Z,0.30
2022-11-08T13:00:03.952Z,0.40
2022-11-08T13:02:34.437Z,0.60
2022-11-08T13:05:07.751Z,0.43
2022-11-08T13:07:43.025Z,0.60
2022-11-08T13:10:16.368Z,0.47
2022-11-08T13:13:01.183Z,0.60
2022-11-08T13:15:29.876Z,0.60
2022-11-08T13:18:17.639Z,0.57
2022-11-08T13:20:47.781Z,0.73
2022-11-08T13:23:17.258Z,0.67
2022-11-08T13:25:46.130Z,0.70
2022-11-08T13:28:33.208Z,0.60
2022-11-08T13:31:05.617Z,0.50
2022-11-08T13:33:34.936Z,0.67
2022-11-08T13:36:10.810Z,0.70
2022-11-08T13:38:46.020Z,0.60
2022-11-08T13:41:18.926Z,0.50
2022-11-08T13:43:47.939Z,0.70
2022-11-08T13:46:34.813Z,0.60
2022-11-08T13:49:15.492Z,0.50
2022-11-08T13:51:44.383Z,0.60
2022-11-08T13:54:32.478Z,0.60
2022-11-08T13:57:01.417Z,0.53
2022-11-08T13:59:50.893Z,0.87
2022-11-08T14:02:32.417Z,0.77
2022-11-08T14:05:17.605Z,0.80
2022-11-08T14:07:48.292Z,0.77
2022-11-08T14:10:19.631Z,0.83
2022-11-08T14:12:52.312Z,0.73
2022-11-08T14:15:24.285Z,1.43
2022-11-08T14:17:54.183Z,0.70
2022-11-08T14:20:32.406Z,1.07
2022-11-08T14:23:03.828Z,1.03
2022-11-08T14:25:34.406Z,1.07
2022-11-08T14:28:03.133Z,1.23
2022-11-08T14:30:32.157Z,3.43
2022-11-08T14:33:07.293Z,0.70
2022-11-08T14:35:37.160Z,1.07
2022-11-08T14:38:05.689Z,0.90
2022-11-08T14:40:34.433Z,1.00
2022-11-08T14:43:02.867Z,4.63
2022-11-08T14:45:31.352Z,0.87
2022-11-08T14:48:03.942Z,2.60
2022-11-08T14:50:33.571Z,1.23
2022-11-08T14:53:27.358Z,1.77
2022-11-08T14:56:18.882Z,8.00
2022-11-08T14:58:47.952Z,8.43
2022-11-08T15:01:17.523Z,6.13
2022-11-08T15:03:49.857Z,4.80
2022-11-08T15:06:18.513Z,6.17
2022-11-08T15:08:52.611Z,4.50
2022-11-08T15:11:31.495Z,2.47
2022-11-08T15:14:01.981Z,1.97
2022-11-08T15:16:39.246Z,1.73
2022-11-08T15:19:25.579Z,1.30
2022-11-08T15:21:54.228Z,2.00
2022-11-08T15:24:29.374Z,1.80
2022-11-08T15:27:01.727Z,2.00
2022-11-08T15:29:30.230Z,2.00
2022-11-08T15:32:01.873Z,1.40
2022-11-08T15:34:33.643Z,2.03
2022-11-08T15:37:02.177Z,1.67
2022-11-08T15:39:34.479Z,2.20
2022-11-08T15:42:03.658Z,1.57
2022-11-08T15:44:32.133Z,1.90
2022-11-08T15:47:00.740Z,2.87
2022-11-08T15:49:30.635Z,2.30
2022-11-08T15:51:59.725Z,2.53
2022-11-08T15:54:28.601Z,2.60
2022-11-08T15:56:58.786Z,2.33
2022-11-08T15:59:29.626Z,4.50
2022-11-08T16:01:59.523Z,3.13
2022-11-08T16:04:28.928Z,3.10
2022-11-08T16:06:57.683Z,3.43
2022-11-08T16:09:26.277Z,2.70
2022-11-08T16:11:54.898Z,2.80
2022-11-08T16:14:25.634Z,3.07
2022-11-08T16:16:54.121Z,3.47
2022-11-08T16:19:23.559Z,4.53
2022-11-08T16:21:52.626Z,4.20
2022-11-08T16:24:21.380Z,3.43
2022-11-08T16:26:50.500Z,4.57
2022-11-08T16:29:21.039Z,5.20
2022-11-08T16:31:51.224Z,4.90
2022-11-08T16:34:19.942Z,5.23
2022-11-08T16:36:49.426Z,5.33
2022-11-08T16:39:18.921Z,5.77
2022-11-08T16:41:47.532Z,5.00
2022-11-08T16:44:16.146Z,5.23
2022-11-08T16:46:44.564Z,5.57
2022-11-08T16:49:20.549Z,5.53
2022-11-08T16:51:49.113Z,5.40
2022-11-08T16:54:19.786Z,5.30
2022-11-08T16:56:48.352Z,5.83
2022-11-08T16:59:16.813Z,5.27
2022-11-08T17:01:45.991Z,5.80
2022-11-08T17:04:14.578Z,6.60
2022-11-08T17:06:44.431Z,6.20
2022-11-08T17:09:12.981Z,6.37
2022-11-08T17:11:41.524Z,8.00
2022-11-08T17:14:12.157Z,6.80
2022-11-08T17:16:40.728Z,5.93
2022-11-08T17:19:09.318Z,6.60
2022-11-08T17:21:44.797Z,5.77
2022-11-08T17:24:21.164Z,5.80
2022-11-08T17:26:50.585Z,5.37
2022-11-08T17:29:19.287Z,5.57
2022-11-08T17:31:47.748Z,5.63
2022-11-08T17:34:16.197Z,6.00
2022-11-08T17:36:44.848Z,5.30
2022-11-08T17:39:15.120Z,4.80
2022-11-08T17:41:43.550Z,5.30
2022-11-08T17:44:12.296Z,4.67
2022-11-08T17:46:40.839Z,5.37
2022-11-08T17:49:10.396Z,5.00
2022-11-08T17:51:38.922Z,5.23
2022-11-08T17:54:07.497Z,4.57
2022-11-08T17:56:37.334Z,4.60
2022-11-08T17:59:06.021Z,5.53
2022-11-08T18:01:34.722Z,4.67
2022-11-08T18:04:03.558Z,4.90
2022-11-08T18:06:32.380Z,5.30
2022-11-08T18:09:00.884Z,4.57
2022-11-08T18:11:29.522Z,4.60
2022-11-08T18:13:59.757Z,4.50
2022-11-08T18:16:29.730Z,5.90
2022-11-08T18:18:59.338Z,4.67
2022-11-08T18:21:28.082Z,5.40
2022-11-08T18:23:59.781Z,4.70
2022-11-08T18:26:28.748Z,4.90
2022-11-08T18:28:57.176Z,5.30
2022-11-08T18:31:27.347Z,5.47
2022-11-08T18:33:56.042Z,5.30
2022-11-08T18:36:25.474Z,5.00
2022-11-08T18:38:54.259Z,5.20
2022-11-08T18:41:25.393Z,5.17
2022-11-08T18:43:53.974Z,5.37
2022-11-08T18:46:23.296Z,5.70
2022-11-08T18:48:53.533Z,6.00
2022-11-08T18:51:22.997Z,5.30
2022-11-08T18:53:52.496Z,5.50
2022-11-08T18:56:21.437Z,5.17
2022-11-08T18:58:50.180Z,5.57
2022-11-08T19:01:18.964Z,5.60
2022-11-08T19:03:47.797Z,5.97
2022-11-08T19:06:17.674Z,5.83
2022-11-08T19:08:46.117Z,6.13
2022-11-08T19:11:15.395Z,6.47
2022-11-08T19:13:43.926Z,5.30
2022-11-08T19:16:14.305Z,6.23
2022-11-08T19:18:43.478Z,5.73
2022-11-08T19:21:13.875Z,6.00
2022-11-08T19:23:44.101Z,5.80
2022-11-08T19:26:14.134Z,6.20
2022-11-08T19:28:45.136Z,5.73
2022-11-08T19:31:14.068Z,5.70
2022-11-08T19:33:42.645Z,5.93
2022-11-08T19:36:12.962Z,6.20
2022-11-08T19:38:41.966Z,6.47
2022-11-08T19:41:12.753Z,5.60
2022-11-08T19:43:42.014Z,6.10
2022-11-08T19:46:12.816Z,6.00
2022-11-08T19:48:42.015Z,6.27
2022-11-08T19:51:13.879Z,5.93
2022-11-08T19:53:42.721Z,5.83
2022-11-08T19:56:13.478Z,6.57
2022-11-08T19:58:41.914Z,5.97
2022-11-08T20:01:11.238Z,6.37
2022-11-08T20:03:40.014Z,5.87
2022-11-08T20:06:09.621Z,6.00
2022-11-08T20:08:38.421Z,6.93
2022-11-08T20:11:13.526Z,5.63
2022-11-08T20:13:42.433Z,6.17
2022-11-08T20:16:11.847Z,6.33
2022-11-08T20:18:40.525Z,6.67
2022-11-08T20:21:09.450Z,6.30
2022-11-08T20:23:38.139Z,6.23
2022-11-08T20:26:08.024Z,6.17
2022-11-08T20:28:41.761Z,7.00
2022-11-08T20:31:13.881Z,5.77
2022-11-08T20:33:42.757Z,5.20
2022-11-08T20:36:12.480Z,5.03
2022-11-08T20:38:41.042Z,4.90
2022-11-08T20:41:10.673Z,5.93
2022-11-08T20:43:41.733Z,5.13
2022-11-08T20:46:11.361Z,5.03
2022-11-08T20:48:42.794Z,4.90
2022-11-08T20:51:13.565Z,5.53
2022-11-08T20:53:42.251Z,4.90
2022-11-08T20:56:12.231Z,4.83
2022-11-08T20:58:42.896Z,5.03
2022-11-08T21:01:13.377Z,4.40
2022-11-08T21:03:42.421Z,4.80
2022-11-08T21:06:11.931Z,4.50
2022-11-08T21:11:30.435Z,4.53
2022-11-08T21:14:00.463Z,4.87
2022-11-08T21:16:31.614Z,4.50
2022-11-08T21:19:04.360Z,4.17
2022-11-08T21:21:33.166Z,4.60
2022-11-08T21:24:01.888Z,4.40
2022-11-08T21:26:30.530Z,3.57
2022-11-08T21:29:00.500Z,4.10
2022-11-08T21:31:28.977Z,3.83
2022-11-08T21:33:57.585Z,3.87
2022-11-08T21:36:26.947Z,3.67
2022-11-08T21:38:55.724Z,3.70
2022-11-08T21:41:24.318Z,3.60
2022-11-08T21:43:52.801Z,4.10
2022-11-08T21:46:23.680Z,3.77
2022-11-08T21:48:55.110Z,3.53
2022-11-08T21:51:23.722Z,3.60
2022-11-08T21:53:55.145Z,3.47
2022-11-08T21:56:24.793Z,3.60
2022-11-08T21:58:53.368Z,3.20
2022-11-08T22:01:28.640Z,3.10
2022-11-08T22:03:58.986Z,2.90
2022-11-08T22:06:27.912Z,3.10
2022-11-08T22:08:56.432Z,2.53
2022-11-08T22:11:25.044Z,2.30
2022-11-08T22:13:53.522Z,2.60
2022-11-08T22:16:23.392Z,2.43
2022-11-08T22:19:04.581Z,2.50
2022-11-08T22:21:40.243Z,2.63
2022-11-08T22:24:10.056Z,2.30
2022-11-08T22:26:38.580Z,2.23
2022-11-08T22:29:07.395Z,2.40
2022-11-08T22:31:37.391Z,2.10
2022-11-08T22:34:06.343Z,2.20
2022-11-08T22:36:35.735Z,2.90
2022-11-08T22:39:05.640Z,2.37
2022-11-08T22:41:34.180Z,2.10
2022-11-08T22:44:03.402Z,2.47
2022-11-08T22:46:33.685Z,2.37
2022-11-08T22:49:03.608Z,2.00
2022-11-08T22:51:32.083Z,2.00
2022-11-08T22:54:00.687Z,2.10
2022-11-08T22:56:29.215Z,1.80
2022-11-08T22:58:57.795Z,1.80
2022-11-08T23:01:26.670Z,1.60
2022-11-08T23:03:55.128Z,1.90
2022-11-08T23:06:25.108Z,1.70
2022-11-08T23:08:53.648Z,1.80
2022-11-08T23:11:39.813Z,1.70
2022-11-08T23:14:26.257Z,1.73
2022-11-08T23:16:54.730Z,1.50
2022-11-08T23:19:42.437Z,1.40
2022-11-08T23:22:31.373Z,1.33
2022-11-08T23:25:00.184Z,1.70
2022-11-08T23:27:52.034Z,1.67
2022-11-08T23:30:38.354Z,1.70
2022-11-08T23:33:07.669Z,1.60
2022-11-08T23:35:36.410Z,1.70
2022-11-08T23:38:06.354Z,1.73
2022-11-08T23:40:52.642Z,1.93
2022-11-08T23:43:50.740Z,1.73
2022-11-08T23:46:19.165Z,2.20
2022-11-08T23:48:47.769Z,1.87
2022-11-08T23:51:16.248Z,2.43
2022-11-08T23:53:46.566Z,2.10
2022-11-08T23:56:21.532Z,2.37
2022-11-08T23:58:49.962Z,2.30
